Fly Mediterranean

Fly Mediterranean VA! Vive la experiencia Fly Mediterranean



 INFORMACIÓN METAR y TAF
METAR FOR LEVC
ADDS - METARS form results

(2312 UTC 31 May 2023)
Data provider http://aviationweather.gov/metar/data/
 
METAR text: LEVC 312300Z 04004KT 360V080 CAVOK 20/17 Q1015 NOSIG
Conditions at: LEVC (VALENCIA (CIV/MI, ES) observed 2300 UTC 31 May 2023
Temperature: 20.0°C (68°F)
Dewpoint: 17.0°C (63°F) [RH = 83%]
Pressure (altimeter): 29.97 inches Hg (1015.0 mb)
Winds: from the NE (40 degrees) at 5 MPH (4 knots; 2.1 m/s)
Visibility: 6 or more miles (10+ km)
Ceiling: ceiling and visibility are OK
Clouds: unknown
Weather: no significant weather observed at this time

METAR text: LEVC 312230Z 04005KT 360V060 CAVOK 20/17 Q1015 NOSIG
Conditions at: LEVC (VALENCIA (CIV/MI, ES) observed 2230 UTC 31 May 2023
Temperature: 20.0°C (68°F)
Dewpoint: 17.0°C (63°F) [RH = 83%]
Pressure (altimeter): 29.97 inches Hg (1015.0 mb)
Winds: from the NE (40 degrees) at 6 MPH (5 knots; 2.6 m/s)
Visibility: 6 or more miles (10+ km)
Ceiling: ceiling and visibility are OK
Clouds: unknown
Weather: no significant weather observed at this time

Forecast for: LEVC (VALENCIA (CIV/MI, ES)
Text: TAF LEVC 311700Z 3118/0118 10010KT 9999 FEW040 TX24/0112Z TN15/0106Z
Forecast period: 1800 UTC 31 May 2023 to 1800 UTC 01 June 2023
Forecast type: FROM: standard forecast or significant change
Winds: from the E (100 degrees) at 12 MPH (10 knots; 5.1 m/s)
Visibility: 6 or more miles (10+ km)
Ceiling: at least 12,000 feet AGL
Clouds: few clouds at 4000 feet AGL
Weather: no significant weather forecast for this period
Text: BECMG 3118/3120 VRB04KT
Forecast period: 1800 UTC 31 May 2023 to 0800 UTC 01 June 2023
Forecast type: BECOMING: Conditions expected to become as follows by 2000 UTC 31 May 2023
Winds: variable direction winds at 5 MPH (4 knots; 2.1 m/s)
Visibility: 6 or more miles (10+ km)
Ceiling: at least 12,000 feet AGL
Clouds: few clouds at 4000 feet AGL
Weather: no significant weather forecast for this period
Text: BECMG 0108/0110 09010KT
Forecast period: 0800 to 1800 UTC 01 June 2023
Forecast type: BECOMING: Conditions expected to become as follows by 1000 UTC 01 June 2023
Winds: from the E (90 degrees) at 12 MPH (10 knots; 5.1 m/s)
Visibility: 6 or more miles (10+ km)
Ceiling: at least 12,000 feet AGL
Clouds: few clouds at 4000 feet AGL
Weather: no significant weather forecast for this period

 MAPA DE AEROPUERTO

 INFORMACIÓN DE PISTA